Juniyah, Lebanon
Current Conditions -  °F | °C
As of 3:00 PM on Monday 26 Jan 2015 (Local Time) from OLBA Reporting Station
Clear Clear  
Wind Chill: 70°   Ceiling: Unl
Heat Index: 70°   Visibility: 6mi
Dew Point: 37°   Wind: 14mph
Humidity: 31%   Direction: 340°NNW
Pressure: 30.12"   Gusts: NA
Location:  33.97°N, 35.63°E
Report Text: OLBA 261200Z 34012KT 9999 SKC 21/03 Q1020
Loading
Personal Weather Stations






























Interactive Weather Map New forecast layout! Learn more

10-Day Weather Forecast

Advertisements
Track Severe Weather on mobile